sensor_id;sensor_type;location;lat;lon;timestamp;temperature;humidity
1429;DHT22;708;51.442;7.016;2023-04-24T00:00:58;12.90;99.90
1429;DHT22;708;51.442;7.016;2023-04-24T00:03:26;12.90;99.90
1429;DHT22;708;51.442;7.016;2023-04-24T00:05:56;13.00;99.90
1429;DHT22;708;51.442;7.016;2023-04-24T00:08:24;12.90;99.90
1429;DHT22;708;51.442;7.016;2023-04-24T00:10:51;12.90;1.00
1429;DHT22;708;51.442;7.016;2023-04-24T00:13:18;12.80;1.00
1429;DHT22;708;51.442;7.016;2023-04-24T00:15:45;12.70;99.90
1429;DHT22;708;51.442;7.016;2023-04-24T00:18:11;12.70;99.90
1429;DHT22;708;51.442;7.016;2023-04-24T00:20:38;12.60;99.90
1429;DHT22;708;51.442;7.016;2023-04-24T00:23:06;12.60;99.90
1429;DHT22;708;51.442;7.016;2023-04-24T00:25:33;12.50;99.90
1429;DHT22;708;51.442;7.016;2023-04-24T00:28:00;12.50;1.00
1429;DHT22;708;51.442;7.016;2023-04-24T00:30:27;12.50;1.00
1429;DHT22;708;51.442;7.016;2023-04-24T00:32:54;12.50;99.90
1429;DHT22;708;51.442;7.016;2023-04-24T00:35:21;12.40;99.90
1429;DHT22;708;51.442;7.016;2023-04-24T00:37:48;12.40;99.90
1429;DHT22;708;51.442;7.016;2023-04-24T00:40:17;12.30;99.90
1429;DHT22;708;51.442;7.016;2023-04-24T00:42:43;12.30;1.00
1429;DHT22;708;51.442;7.016;2023-04-24T00:45:10;12.30;1.00
1429;DHT22;708;51.442;7.016;2023-04-24T00:47:38;12.30;1.00
1429;DHT22;708;51.442;7.016;2023-04-24T00:50:06;12.20;1.00
1429;DHT22;708;51.442;7.016;2023-04-24T00:52:33;12.00;1.00
1429;DHT22;708;51.442;7.016;2023-04-24T00:55:00;12.00;99.90
1429;DHT22;708;51.442;7.016;2023-04-24T00:57:28;12.00;1.00
1429;DHT22;708;51.442;7.016;2023-04-24T00:59:55;11.90;1.00
1429;DHT22;708;51.442;7.016;2023-04-24T01:02:22;11.90;99.90
1429;DHT22;708;51.442;7.016;2023-04-24T01:04:50;11.80;1.00
1429;DHT22;708;51.442;7.016;2023-04-24T01:07:19;11.80;99.90
1429;DHT22;708;51.442;7.016;2023-04-24T01:09:48;11.80;1.00
1429;DHT22;708;51.442;7.016;2023-04-24T01:12:16;11.80;99.90
1429;DHT22;708;51.442;7.016;2023-04-24T01:14:45;11.90;1.00
1429;DHT22;708;51.442;7.016;2023-04-24T01:17:12;11.90;99.90
1429;DHT22;708;51.442;7.016;2023-04-24T01:19:39;12.00;1.00
1429;DHT22;708;51.442;7.016;2023-04-24T01:22:10;12.00;99.90
1429;DHT22;708;51.442;7.016;2023-04-24T01:24:38;11.90;99.90
1429;DHT22;708;51.442;7.016;2023-04-24T01:27:05;11.90;1.00
1429;DHT22;708;51.442;7.016;2023-04-24T01:29:32;11.90;99.90
1429;DHT22;708;51.442;7.016;2023-04-24T01:31:59;11.80;1.00
1429;DHT22;708;51.442;7.016;2023-04-24T01:34:26;11.70;1.00
1429;DHT22;708;51.442;7.016;2023-04-24T01:36:53;11.70;99.90
1429;DHT22;708;51.442;7.016;2023-04-24T01:39:22;11.60;99.90
1429;DHT22;708;51.442;7.016;2023-04-24T01:41:51;11.50;1.00
1429;DHT22;708;51.442;7.016;2023-04-24T01:44:19;11.40;1.00
1429;DHT22;708;51.442;7.016;2023-04-24T01:46:46;11.30;93.70
1429;DHT22;708;51.442;7.016;2023-04-24T01:49:13;11.30;99.90
1429;DHT22;708;51.442;7.016;2023-04-24T01:51:40;11.30;99.90
1429;DHT22;708;51.442;7.016;2023-04-24T01:54:06;11.30;99.90
1429;DHT22;708;51.442;7.016;2023-04-24T01:56:35;11.20;99.90
1429;DHT22;708;51.442;7.016;2023-04-24T01:59:03;11.10;99.90
1429;DHT22;708;51.442;7.016;2023-04-24T02:01:33;11.00;99.90
1429;DHT22;708;51.442;7.016;2023-04-24T02:04:01;11.00;99.90
1429;DHT22;708;51.442;7.016;2023-04-24T02:06:28;11.00;99.90
1429;DHT22;708;51.442;7.016;2023-04-24T02:08:56;10.90;99.90
1429;DHT22;708;51.442;7.016;2023-04-24T02:11:23;10.90;99.90
1429;DHT22;708;51.442;7.016;2023-04-24T02:13:51;10.90;99.90
1429;DHT22;708;51.442;7.016;2023-04-24T02:16:18;10.90;99.90
1429;DHT22;708;51.442;7.016;2023-04-24T02:18:45;10.90;99.90
1429;DHT22;708;51.442;7.016;2023-04-24T02:21:11;10.90;99.90
1429;DHT22;708;51.442;7.016;2023-04-24T02:23:38;11.00;99.90
1429;DHT22;708;51.442;7.016;2023-04-24T02:26:05;11.00;99.90
1429;DHT22;708;51.442;7.016;2023-04-24T02:28:32;11.10;99.90
1429;DHT22;708;51.442;7.016;2023-04-24T02:31:00;11.10;99.90
1429;DHT22;708;51.442;7.016;2023-04-24T02:33:27;11.20;99.90
1429;DHT22;708;51.442;7.016;2023-04-24T02:35:55;11.20;99.90
1429;DHT22;708;51.442;7.016;2023-04-24T02:38:21;11.20;99.90
1429;DHT22;708;51.442;7.016;2023-04-24T02:40:48;11.20;99.90
1429;DHT22;708;51.442;7.016;2023-04-24T02:43:15;11.20;99.90
1429;DHT22;708;51.442;7.016;2023-04-24T02:45:42;11.20;99.90
1429;DHT22;708;51.442;7.016;2023-04-24T02:48:10;11.10;99.90
1429;DHT22;708;51.442;7.016;2023-04-24T02:50:36;11.20;99.90
1429;DHT22;708;51.442;7.016;2023-04-24T02:53:03;11.30;99.90
1429;DHT22;708;51.442;7.016;2023-04-24T02:55:30;11.30;83.40
1429;DHT22;708;51.442;7.016;2023-04-24T02:57:56;11.30;99.90
1429;DHT22;708;51.442;7.016;2023-04-24T03:00:23;11.20;99.90
1429;DHT22;708;51.442;7.016;2023-04-24T03:02:50;11.30;99.90
1429;DHT22;708;51.442;7.016;2023-04-24T03:05:18;11.30;99.90
1429;DHT22;708;51.442;7.016;2023-04-24T03:07:45;11.30;99.90
1429;DHT22;708;51.442;7.016;2023-04-24T03:10:12;11.30;99.90
1429;DHT22;708;51.442;7.016;2023-04-24T03:12:39;11.40;41.40
1429;DHT22;708;51.442;7.016;2023-04-24T03:15:07;11.40;48.20
1429;DHT22;708;51.442;7.016;2023-04-24T03:17:33;11.40;9.40
1429;DHT22;708;51.442;7.016;2023-04-24T03:20:00;11.40;14.50
1429;DHT22;708;51.442;7.016;2023-04-24T03:22:28;11.40;1.00
1429;DHT22;708;51.442;7.016;2023-04-24T03:24:55;11.50;1.00
1429;DHT22;708;51.442;7.016;2023-04-24T03:27:22;11.50;1.00
1429;DHT22;708;51.442;7.016;2023-04-24T03:29:49;11.50;1.00
1429;DHT22;708;51.442;7.016;2023-04-24T03:32:19;11.50;1.00
1429;DHT22;708;51.442;7.016;2023-04-24T03:34:46;11.50;1.00
1429;DHT22;708;51.442;7.016;2023-04-24T03:37:12;11.40;1.00
1429;DHT22;708;51.442;7.016;2023-04-24T03:39:40;11.50;1.00
1429;DHT22;708;51.442;7.016;2023-04-24T03:42:07;11.40;1.00
1429;DHT22;708;51.442;7.016;2023-04-24T03:44:34;11.50;1.00
1429;DHT22;708;51.442;7.016;2023-04-24T03:47:01;11.50;1.00
1429;DHT22;708;51.442;7.016;2023-04-24T03:49:28;11.50;1.00
1429;DHT22;708;51.442;7.016;2023-04-24T03:51:55;11.50;1.00
1429;DHT22;708;51.442;7.016;2023-04-24T03:54:22;11.50;1.00
1429;DHT22;708;51.442;7.016;2023-04-24T03:56:50;11.50;1.00
1429;DHT22;708;51.442;7.016;2023-04-24T03:59:16;11.50;1.00
1429;DHT22;708;51.442;7.016;2023-04-24T04:01:43;11.50;1.00
1429;DHT22;708;51.442;7.016;2023-04-24T04:04:10;11.50;1.00
1429;DHT22;708;51.442;7.016;2023-04-24T04:06:37;11.50;1.00
1429;DHT22;708;51.442;7.016;2023-04-24T04:09:04;11.60;1.00
1429;DHT22;708;51.442;7.016;2023-04-24T04:11:31;11.60;1.00
1429;DHT22;708;51.442;7.016;2023-04-24T04:13:59;11.70;99.90
1429;DHT22;708;51.442;7.016;2023-04-24T04:16:26;11.70;99.90
1429;DHT22;708;51.442;7.016;2023-04-24T04:18:52;11.70;1.00
1429;DHT22;708;51.442;7.016;2023-04-24T04:21:19;11.70;17.50
1429;DHT22;708;51.442;7.016;2023-04-24T04:23:46;11.70;31.50
1429;DHT22;708;51.442;7.016;2023-04-24T04:26:13;11.60;1.20
1429;DHT22;708;51.442;7.016;2023-04-24T04:28:40;11.70;29.10
1429;DHT22;708;51.442;7.016;2023-04-24T04:31:08;11.70;1.00
1429;DHT22;708;51.442;7.016;2023-04-24T04:33:35;11.70;1.00
1429;DHT22;708;51.442;7.016;2023-04-24T04:36:03;11.60;99.90
1429;DHT22;708;51.442;7.016;2023-04-24T04:38:30;11.60;99.90
1429;DHT22;708;51.442;7.016;2023-04-24T04:40:57;11.60;99.90
1429;DHT22;708;51.442;7.016;2023-04-24T04:43:24;11.60;1.00
1429;DHT22;708;51.442;7.016;2023-04-24T04:45:51;11.70;99.90
1429;DHT22;708;51.442;7.016;2023-04-24T04:48:21;11.70;49.50
1429;DHT22;708;51.442;7.016;2023-04-24T04:50:48;11.60;48.30
1429;DHT22;708;51.442;7.016;2023-04-24T04:53:15;11.70;99.90
1429;DHT22;708;51.442;7.016;2023-04-24T04:55:41;11.70;1.00
1429;DHT22;708;51.442;7.016;2023-04-24T04:58:08;11.70;1.00
1429;DHT22;708;51.442;7.016;2023-04-24T05:00:35;11.70;99.90
1429;DHT22;708;51.442;7.016;2023-04-24T05:03:03;11.70;1.00
1429;DHT22;708;51.442;7.016;2023-04-24T05:05:31;11.60;99.90
1429;DHT22;708;51.442;7.016;2023-04-24T05:07:57;11.70;99.90
1429;DHT22;708;51.442;7.016;2023-04-24T05:10:24;11.70;1.00
1429;DHT22;708;51.442;7.016;2023-04-24T05:12:51;11.70;1.00
1429;DHT22;708;51.442;7.016;2023-04-24T05:15:18;11.70;47.70
1429;DHT22;708;51.442;7.016;2023-04-24T05:17:44;11.70;99.90
1429;DHT22;708;51.442;7.016;2023-04-24T05:20:11;11.70;99.90
1429;DHT22;708;51.442;7.016;2023-04-24T05:22:39;11.70;1.00
1429;DHT22;708;51.442;7.016;2023-04-24T05:25:06;11.70;1.00
1429;DHT22;708;51.442;7.016;2023-04-24T05:27:33;11.60;99.90
1429;DHT22;708;51.442;7.016;2023-04-24T05:30:00;11.60;99.90
1429;DHT22;708;51.442;7.016;2023-04-24T05:32:27;11.60;99.90
1429;DHT22;708;51.442;7.016;2023-04-24T05:34:54;11.50;99.90
1429;DHT22;708;51.442;7.016;2023-04-24T05:37:20;11.40;99.90
1429;DHT22;708;51.442;7.016;2023-04-24T05:39:48;11.20;1.00
1429;DHT22;708;51.442;7.016;2023-04-24T05:42:15;11.10;1.00
1429;DHT22;708;51.442;7.016;2023-04-24T05:44:42;11.00;1.00
1429;DHT22;708;51.442;7.016;2023-04-24T05:47:09;11.00;1.00
1429;DHT22;708;51.442;7.016;2023-04-24T05:49:35;10.90;1.00
1429;DHT22;708;51.442;7.016;2023-04-24T05:52:02;10.80;1.00
1429;DHT22;708;51.442;7.016;2023-04-24T05:54:30;10.80;1.00
1429;DHT22;708;51.442;7.016;2023-04-24T05:56:59;10.70;1.00
1429;DHT22;708;51.442;7.016;2023-04-24T05:59:26;10.80;1.00
1429;DHT22;708;51.442;7.016;2023-04-24T06:01:53;10.80;1.00
1429;DHT22;708;51.442;7.016;2023-04-24T06:04:20;10.80;1.00
1429;DHT22;708;51.442;7.016;2023-04-24T06:06:47;10.80;1.00
1429;DHT22;708;51.442;7.016;2023-04-24T06:09:16;10.80;1.00
1429;DHT22;708;51.442;7.016;2023-04-24T06:11:43;10.90;1.00
1429;DHT22;708;51.442;7.016;2023-04-24T06:14:11;11.00;1.00
1429;DHT22;708;51.442;7.016;2023-04-24T06:16:38;11.00;1.00
1429;DHT22;708;51.442;7.016;2023-04-24T06:19:05;11.10;1.00
1429;DHT22;708;51.442;7.016;2023-04-24T06:21:32;11.20;1.00
1429;DHT22;708;51.442;7.016;2023-04-24T06:23:58;11.30;1.00
1429;DHT22;708;51.442;7.016;2023-04-24T06:26:25;11.40;1.00
1429;DHT22;708;51.442;7.016;2023-04-24T06:28:52;11.40;1.00
1429;DHT22;708;51.442;7.016;2023-04-24T06:31:21;11.40;1.00
1429;DHT22;708;51.442;7.016;2023-04-24T06:33:48;11.40;1.00
1429;DHT22;708;51.442;7.016;2023-04-24T06:36:16;11.30;1.00
1429;DHT22;708;51.442;7.016;2023-04-24T06:38:43;11.20;1.00
1429;DHT22;708;51.442;7.016;2023-04-24T06:41:10;11.20;1.00
1429;DHT22;708;51.442;7.016;2023-04-24T06:43:36;11.20;1.00
1429;DHT22;708;51.442;7.016;2023-04-24T06:46:03;11.30;1.00
1429;DHT22;708;51.442;7.016;2023-04-24T06:48:31;11.40;1.00
1429;DHT22;708;51.442;7.016;2023-04-24T06:50:58;11.40;1.00
1429;DHT22;708;51.442;7.016;2023-04-24T06:53:24;11.40;1.00
1429;DHT22;708;51.442;7.016;2023-04-24T06:55:52;11.60;1.00
1429;DHT22;708;51.442;7.016;2023-04-24T06:58:19;11.70;1.00
1429;DHT22;708;51.442;7.016;2023-04-24T07:00:46;11.70;1.00
1429;DHT22;708;51.442;7.016;2023-04-24T07:03:13;11.60;1.00
1429;DHT22;708;51.442;7.016;2023-04-24T07:05:41;11.60;1.00
1429;DHT22;708;51.442;7.016;2023-04-24T07:08:07;11.50;1.00
1429;DHT22;708;51.442;7.016;2023-04-24T07:10:36;11.30;1.00
1429;DHT22;708;51.442;7.016;2023-04-24T07:13:03;11.10;1.00
1429;DHT22;708;51.442;7.016;2023-04-24T07:15:30;11.10;1.00
1429;DHT22;708;51.442;7.016;2023-04-24T07:17:57;11.20;1.00
1429;DHT22;708;51.442;7.016;2023-04-24T07:20:24;11.20;1.00
1429;DHT22;708;51.442;7.016;2023-04-24T07:22:52;11.30;1.00
1429;DHT22;708;51.442;7.016;2023-04-24T07:25:20;11.40;1.00
1429;DHT22;708;51.442;7.016;2023-04-24T07:27:47;11.40;1.00
1429;DHT22;708;51.442;7.016;2023-04-24T07:30:14;11.50;1.00
1429;DHT22;708;51.442;7.016;2023-04-24T07:32:41;11.40;1.00
1429;DHT22;708;51.442;7.016;2023-04-24T07:35:08;11.40;1.00
1429;DHT22;708;51.442;7.016;2023-04-24T07:37:35;11.40;1.00
1429;DHT22;708;51.442;7.016;2023-04-24T07:40:04;11.40;1.00
1429;DHT22;708;51.442;7.016;2023-04-24T07:42:31;11.50;1.00
1429;DHT22;708;51.442;7.016;2023-04-24T07:45:00;11.40;1.00
1429;DHT22;708;51.442;7.016;2023-04-24T07:47:27;11.50;1.00
1429;DHT22;708;51.442;7.016;2023-04-24T07:49:53;11.40;1.00
1429;DHT22;708;51.442;7.016;2023-04-24T07:52:20;11.50;1.00
1429;DHT22;708;51.442;7.016;2023-04-24T07:54:47;11.70;1.00
1429;DHT22;708;51.442;7.016;2023-04-24T07:57:16;12.00;1.00
1429;DHT22;708;51.442;7.016;2023-04-24T07:59:43;12.20;99.90
1429;DHT22;708;51.442;7.016;2023-04-24T08:02:09;12.30;66.90
1429;DHT22;708;51.442;7.016;2023-04-24T08:04:37;12.30;28.70
1429;DHT22;708;51.442;7.016;2023-04-24T08:07:03;12.00;84.20
1429;DHT22;708;51.442;7.016;2023-04-24T08:09:30;12.00;23.70
1429;DHT22;708;51.442;7.016;2023-04-24T08:11:57;11.90;3.70
1429;DHT22;708;51.442;7.016;2023-04-24T08:14:25;11.90;52.20
1429;DHT22;708;51.442;7.016;2023-04-24T08:16:53;11.80;99.90
1429;DHT22;708;51.442;7.016;2023-04-24T08:19:20;11.70;99.90
1429;DHT22;708;51.442;7.016;2023-04-24T08:21:47;11.60;99.90
1429;DHT22;708;51.442;7.016;2023-04-24T08:24:14;11.50;99.90
1429;DHT22;708;51.442;7.016;2023-04-24T08:26:41;11.50;99.90
1429;DHT22;708;51.442;7.016;2023-04-24T08:29:08;11.40;99.90
1429;DHT22;708;51.442;7.016;2023-04-24T08:31:36;11.30;1.00
1429;DHT22;708;51.442;7.016;2023-04-24T08:34:03;11.10;1.00
1429;DHT22;708;51.442;7.016;2023-04-24T08:36:30;10.90;1.00
1429;DHT22;708;51.442;7.016;2023-04-24T08:38:57;10.70;1.00
1429;DHT22;708;51.442;7.016;2023-04-24T08:41:24;10.70;1.00
1429;DHT22;708;51.442;7.016;2023-04-24T08:43:51;10.70;1.00
1429;DHT22;708;51.442;7.016;2023-04-24T08:46:19;10.60;1.00
1429;DHT22;708;51.442;7.016;2023-04-24T08:48:48;10.70;1.00
1429;DHT22;708;51.442;7.016;2023-04-24T08:51:16;10.70;1.00
1429;DHT22;708;51.442;7.016;2023-04-24T08:53:43;10.80;1.00
1429;DHT22;708;51.442;7.016;2023-04-24T08:56:12;10.90;1.00
1429;DHT22;708;51.442;7.016;2023-04-24T08:58:39;10.90;1.00
1429;DHT22;708;51.442;7.016;2023-04-24T09:01:07;11.00;6.20
1429;DHT22;708;51.442;7.016;2023-04-24T09:03:34;11.10;1.00
1429;DHT22;708;51.442;7.016;2023-04-24T09:06:04;11.30;1.00
1429;DHT22;708;51.442;7.016;2023-04-24T09:08:33;11.40;1.00
1429;DHT22;708;51.442;7.016;2023-04-24T09:11:00;11.60;1.00
1429;DHT22;708;51.442;7.016;2023-04-24T09:13:28;11.70;1.00
1429;DHT22;708;51.442;7.016;2023-04-24T09:15:56;11.80;1.00
1429;DHT22;708;51.442;7.016;2023-04-24T09:18:26;11.90;1.00
1429;DHT22;708;51.442;7.016;2023-04-24T09:21:00;11.80;1.00
1429;DHT22;708;51.442;7.016;2023-04-24T09:23:30;11.70;1.00
1429;DHT22;708;51.442;7.016;2023-04-24T09:25:58;11.60;1.00
1429;DHT22;708;51.442;7.016;2023-04-24T09:28:27;11.50;1.00
1429;DHT22;708;51.442;7.016;2023-04-24T09:31:02;11.40;1.00
1429;DHT22;708;51.442;7.016;2023-04-24T09:33:29;11.30;1.00
1429;DHT22;708;51.442;7.016;2023-04-24T09:35:56;11.20;1.00
1429;DHT22;708;51.442;7.016;2023-04-24T09:38:32;11.00;2.30
1429;DHT22;708;51.442;7.016;2023-04-24T09:41:00;10.90;6.60
1429;DHT22;708;51.442;7.016;2023-04-24T09:43:28;10.80;14.70
1429;DHT22;708;51.442;7.016;2023-04-24T09:45:56;10.80;19.60
1429;DHT22;708;51.442;7.016;2023-04-24T09:48:30;10.70;6.10
1429;DHT22;708;51.442;7.016;2023-04-24T09:50:57;10.60;6.40
1429;DHT22;708;51.442;7.016;2023-04-24T09:53:24;10.60;2.80
1429;DHT22;708;51.442;7.016;2023-04-24T09:59:13;10.50;1.00
1429;DHT22;708;51.442;7.016;2023-04-24T10:01:40;10.50;1.00
1429;DHT22;708;51.442;7.016;2023-04-24T10:04:17;10.40;1.00
1429;DHT22;708;51.442;7.016;2023-04-24T10:06:45;10.40;2.40
1429;DHT22;708;51.442;7.016;2023-04-24T10:09:12;10.40;15.30
1429;DHT22;708;51.442;7.016;2023-04-24T10:11:41;10.50;27.60
1429;DHT22;708;51.442;7.016;2023-04-24T10:14:09;10.50;19.70
1429;DHT22;708;51.442;7.016;2023-04-24T10:16:39;10.60;1.00
1429;DHT22;708;51.442;7.016;2023-04-24T10:19:07;10.60;2.10
1429;DHT22;708;51.442;7.016;2023-04-24T10:21:34;10.60;6.40
1429;DHT22;708;51.442;7.016;2023-04-24T10:24:01;10.60;1.30
1429;DHT22;708;51.442;7.016;2023-04-24T10:26:29;10.60;13.70
1429;DHT22;708;51.442;7.016;2023-04-24T10:28:58;10.60;20.90
1429;DHT22;708;51.442;7.016;2023-04-24T10:31:25;10.60;18.60
1429;DHT22;708;51.442;7.016;2023-04-24T10:33:54;10.80;26.60
1429;DHT22;708;51.442;7.016;2023-04-24T10:36:23;10.90;11.40
1429;DHT22;708;51.442;7.016;2023-04-24T10:38:53;11.00;1.00
1429;DHT22;708;51.442;7.016;2023-04-24T10:41:22;11.00;1.00
1429;DHT22;708;51.442;7.016;2023-04-24T10:44:04;11.00;1.00
1429;DHT22;708;51.442;7.016;2023-04-24T10:46:31;11.00;1.00
1429;DHT22;708;51.442;7.016;2023-04-24T10:49:04;11.00;1.00
1429;DHT22;708;51.442;7.016;2023-04-24T10:51:45;11.00;1.00
1429;DHT22;708;51.442;7.016;2023-04-24T10:54:29;11.10;1.00
1429;DHT22;708;51.442;7.016;2023-04-24T10:57:26;11.10;1.00
1429;DHT22;708;51.442;7.016;2023-04-24T11:00:10;11.20;1.00
1429;DHT22;708;51.442;7.016;2023-04-24T11:02:40;11.30;1.00
1429;DHT22;708;51.442;7.016;2023-04-24T11:05:15;11.40;1.00
1429;DHT22;708;51.442;7.016;2023-04-24T11:08:10;11.50;1.00
1429;DHT22;708;51.442;7.016;2023-04-24T11:10:43;11.60;1.00
1429;DHT22;708;51.442;7.016;2023-04-24T11:13:10;11.70;1.00
1429;DHT22;708;51.442;7.016;2023-04-24T11:15:41;11.80;1.00
1429;DHT22;708;51.442;7.016;2023-04-24T11:18:13;11.90;1.00
1429;DHT22;708;51.442;7.016;2023-04-24T11:20:43;11.90;99.90
1429;DHT22;708;51.442;7.016;2023-04-24T11:23:12;12.00;99.90
1429;DHT22;708;51.442;7.016;2023-04-24T11:25:39;12.20;99.90
1429;DHT22;708;51.442;7.016;2023-04-24T11:28:06;12.40;99.90
1429;DHT22;708;51.442;7.016;2023-04-24T11:30:33;12.60;99.90
1429;DHT22;708;51.442;7.016;2023-04-24T11:33:04;12.70;99.90
1429;DHT22;708;51.442;7.016;2023-04-24T11:35:35;12.80;99.90
1429;DHT22;708;51.442;7.016;2023-04-24T11:38:06;12.80;91.30
1429;DHT22;708;51.442;7.016;2023-04-24T11:40:34;12.80;1.00
1429;DHT22;708;51.442;7.016;2023-04-24T11:43:01;12.70;99.90
1429;DHT22;708;51.442;7.016;2023-04-24T11:45:28;12.50;99.90
1429;DHT22;708;51.442;7.016;2023-04-24T11:47:56;12.40;1.00
1429;DHT22;708;51.442;7.016;2023-04-24T11:50:25;12.30;99.90
1429;DHT22;708;51.442;7.016;2023-04-24T11:52:53;12.30;99.90
1429;DHT22;708;51.442;7.016;2023-04-24T11:55:27;12.20;99.90
1429;DHT22;708;51.442;7.016;2023-04-24T11:57:55;12.10;99.90
1429;DHT22;708;51.442;7.016;2023-04-24T12:00:24;12.20;1.00
1429;DHT22;708;51.442;7.016;2023-04-24T12:02:51;12.40;1.00
1429;DHT22;708;51.442;7.016;2023-04-24T12:05:19;12.70;1.00
1429;DHT22;708;51.442;7.016;2023-04-24T12:07:47;13.00;1.00
1429;DHT22;708;51.442;7.016;2023-04-24T12:10:13;13.30;1.00
1429;DHT22;708;51.442;7.016;2023-04-24T12:12:45;13.80;99.90
1429;DHT22;708;51.442;7.016;2023-04-24T12:15:12;14.10;1.00
1429;DHT22;708;51.442;7.016;2023-04-24T12:17:41;14.30;99.90
1429;DHT22;708;51.442;7.016;2023-04-24T12:20:09;14.40;99.90
1429;DHT22;708;51.442;7.016;2023-04-24T12:22:43;14.60;99.90
1429;DHT22;708;51.442;7.016;2023-04-24T12:25:11;14.70;99.90
1429;DHT22;708;51.442;7.016;2023-04-24T12:27:38;14.70;99.90
1429;DHT22;708;51.442;7.016;2023-04-24T12:30:13;14.40;99.90
1429;DHT22;708;51.442;7.016;2023-04-24T12:32:44;14.20;99.90
1429;DHT22;708;51.442;7.016;2023-04-24T12:35:12;13.90;99.90
1429;DHT22;708;51.442;7.016;2023-04-24T12:37:41;13.80;1.00
1429;DHT22;708;51.442;7.016;2023-04-24T12:40:09;13.60;99.90
1429;DHT22;708;51.442;7.016;2023-04-24T12:42:43;13.50;99.90
1429;DHT22;708;51.442;7.016;2023-04-24T12:45:12;13.30;1.00
1429;DHT22;708;51.442;7.016;2023-04-24T12:47:40;13.20;1.00
1429;DHT22;708;51.442;7.016;2023-04-24T12:50:08;13.30;1.00
1429;DHT22;708;51.442;7.016;2023-04-24T12:52:35;13.30;1.00
1429;DHT22;708;51.442;7.016;2023-04-24T12:55:02;13.40;99.90
1429;DHT22;708;51.442;7.016;2023-04-24T12:57:30;13.40;99.90
1429;DHT22;708;51.442;7.016;2023-04-24T12:59:58;13.40;99.90
1429;DHT22;708;51.442;7.016;2023-04-24T13:02:27;13.60;99.90
1429;DHT22;708;51.442;7.016;2023-04-24T13:04:54;13.70;99.90
1429;DHT22;708;51.442;7.016;2023-04-24T13:07:21;13.80;99.90
1429;DHT22;708;51.442;7.016;2023-04-24T13:09:49;14.00;99.90
1429;DHT22;708;51.442;7.016;2023-04-24T13:12:16;14.30;99.90
1429;DHT22;708;51.442;7.016;2023-04-24T13:14:42;14.50;99.90
1429;DHT22;708;51.442;7.016;2023-04-24T13:17:09;14.60;99.90
1429;DHT22;708;51.442;7.016;2023-04-24T13:19:39;14.80;99.90
1429;DHT22;708;51.442;7.016;2023-04-24T13:22:08;14.80;99.90
1429;DHT22;708;51.442;7.016;2023-04-24T13:24:35;14.80;99.90
1429;DHT22;708;51.442;7.016;2023-04-24T13:27:02;14.50;99.90
1429;DHT22;708;51.442;7.016;2023-04-24T13:29:29;14.30;99.90
1429;DHT22;708;51.442;7.016;2023-04-24T13:31:56;14.20;99.90
1429;DHT22;708;51.442;7.016;2023-04-24T13:34:24;14.20;99.90
1429;DHT22;708;51.442;7.016;2023-04-24T13:36:53;14.00;99.90
1429;DHT22;708;51.442;7.016;2023-04-24T13:39:20;13.90;99.90
1429;DHT22;708;51.442;7.016;2023-04-24T13:41:47;13.80;99.90
1429;DHT22;708;51.442;7.016;2023-04-24T13:44:15;13.80;99.90
1429;DHT22;708;51.442;7.016;2023-04-24T13:46:42;13.90;99.90
1429;DHT22;708;51.442;7.016;2023-04-24T13:49:10;13.90;99.90
1429;DHT22;708;51.442;7.016;2023-04-24T13:51:37;13.90;99.90
1429;DHT22;708;51.442;7.016;2023-04-24T13:54:05;14.00;99.90
1429;DHT22;708;51.442;7.016;2023-04-24T13:56:32;14.00;99.90
1429;DHT22;708;51.442;7.016;2023-04-24T13:58:59;14.10;99.90
1429;DHT22;708;51.442;7.016;2023-04-24T14:01:26;14.20;99.90
1429;DHT22;708;51.442;7.016;2023-04-24T14:03:53;14.30;99.90
1429;DHT22;708;51.442;7.016;2023-04-24T14:06:20;14.60;99.90
1429;DHT22;708;51.442;7.016;2023-04-24T14:08:49;14.70;99.90
1429;DHT22;708;51.442;7.016;2023-04-24T14:11:17;14.80;99.90
1429;DHT22;708;51.442;7.016;2023-04-24T14:13:44;15.00;99.90
1429;DHT22;708;51.442;7.016;2023-04-24T14:16:11;15.00;99.90
1429;DHT22;708;51.442;7.016;2023-04-24T14:18:38;15.20;99.90
1429;DHT22;708;51.442;7.016;2023-04-24T14:21:05;15.40;99.90
1429;DHT22;708;51.442;7.016;2023-04-24T14:23:32;15.40;99.90
1429;DHT22;708;51.442;7.016;2023-04-24T14:25:59;15.30;99.90
1429;DHT22;708;51.442;7.016;2023-04-24T14:28:28;15.10;99.90
1429;DHT22;708;51.442;7.016;2023-04-24T14:30:54;15.10;99.90
1429;DHT22;708;51.442;7.016;2023-04-24T14:33:21;14.90;99.90
1429;DHT22;708;51.442;7.016;2023-04-24T14:35:48;14.80;99.90
1429;DHT22;708;51.442;7.016;2023-04-24T14:38:14;14.80;99.90
1429;DHT22;708;51.442;7.016;2023-04-24T14:40:41;14.90;99.90
1429;DHT22;708;51.442;7.016;2023-04-24T14:43:08;14.70;99.90
1429;DHT22;708;51.442;7.016;2023-04-24T14:45:36;14.60;99.90
1429;DHT22;708;51.442;7.016;2023-04-24T14:48:03;14.50;99.90
1429;DHT22;708;51.442;7.016;2023-04-24T14:50:30;14.30;99.90
1429;DHT22;708;51.442;7.016;2023-04-24T14:52:57;14.20;99.90
1429;DHT22;708;51.442;7.016;2023-04-24T14:55:24;14.00;99.90
1429;DHT22;708;51.442;7.016;2023-04-24T14:57:51;13.80;99.90
1429;DHT22;708;51.442;7.016;2023-04-24T15:00:19;13.50;99.90
1429;DHT22;708;51.442;7.016;2023-04-24T15:02:49;13.20;99.90
1429;DHT22;708;51.442;7.016;2023-04-24T15:05:16;12.90;1.00
1429;DHT22;708;51.442;7.016;2023-04-24T15:07:43;12.70;1.00
1429;DHT22;708;51.442;7.016;2023-04-24T15:10:11;12.60;99.90
1429;DHT22;708;51.442;7.016;2023-04-24T15:12:37;12.60;99.90
1429;DHT22;708;51.442;7.016;2023-04-24T15:15:05;12.60;99.90
1429;DHT22;708;51.442;7.016;2023-04-24T15:17:32;12.70;99.90
1429;DHT22;708;51.442;7.016;2023-04-24T15:20:00;12.80;99.90
1429;DHT22;708;51.442;7.016;2023-04-24T15:22:28;13.00;99.90
1429;DHT22;708;51.442;7.016;2023-04-24T15:24:54;13.20;99.90
1429;DHT22;708;51.442;7.016;2023-04-24T15:27:21;13.50;15.50
1429;DHT22;708;51.442;7.016;2023-04-24T15:29:48;13.80;1.00
1429;DHT22;708;51.442;7.016;2023-04-24T15:32:15;14.00;1.00
1429;DHT22;708;51.442;7.016;2023-04-24T15:34:41;14.00;99.90
1429;DHT22;708;51.442;7.016;2023-04-24T15:37:09;14.00;99.90
1429;DHT22;708;51.442;7.016;2023-04-24T15:39:36;14.10;99.90
1429;DHT22;708;51.442;7.016;2023-04-24T15:42:03;14.20;99.90
1429;DHT22;708;51.442;7.016;2023-04-24T15:44:30;14.20;99.90
1429;DHT22;708;51.442;7.016;2023-04-24T15:47:00;14.20;99.90
1429;DHT22;708;51.442;7.016;2023-04-24T15:49:31;14.30;99.90
1429;DHT22;708;51.442;7.016;2023-04-24T15:51:58;14.30;99.90
1429;DHT22;708;51.442;7.016;2023-04-24T15:54:26;14.30;99.90
1429;DHT22;708;51.442;7.016;2023-04-24T15:56:52;14.30;99.90
1429;DHT22;708;51.442;7.016;2023-04-24T15:59:19;14.10;99.90
1429;DHT22;708;51.442;7.016;2023-04-24T16:01:47;14.00;99.90
1429;DHT22;708;51.442;7.016;2023-04-24T16:04:14;13.90;99.90
1429;DHT22;708;51.442;7.016;2023-04-24T16:06:41;13.70;99.90
1429;DHT22;708;51.442;7.016;2023-04-24T16:09:08;13.60;99.90
1429;DHT22;708;51.442;7.016;2023-04-24T16:11:36;13.60;99.90
1429;DHT22;708;51.442;7.016;2023-04-24T16:14:04;13.70;99.90
1429;DHT22;708;51.442;7.016;2023-04-24T16:16:31;13.70;99.90
1429;DHT22;708;51.442;7.016;2023-04-24T16:18:57;13.70;99.90
1429;DHT22;708;51.442;7.016;2023-04-24T16:21:24;13.70;99.90
1429;DHT22;708;51.442;7.016;2023-04-24T16:23:51;13.60;99.90
1429;DHT22;708;51.442;7.016;2023-04-24T16:26:18;13.50;99.90
1429;DHT22;708;51.442;7.016;2023-04-24T16:28:46;13.40;99.90
1429;DHT22;708;51.442;7.016;2023-04-24T16:31:13;13.20;99.90